sensor_id;sensor_type;location;lat;lon;timestamp;temperature;humidity
55261;DHT22;41123;51.416;6.758;2022-07-05T00:00:07;19.50;99.90
55261;DHT22;41123;51.416;6.758;2022-07-05T00:02:33;19.50;99.90
55261;DHT22;41123;51.416;6.758;2022-07-05T00:04:58;19.50;99.90
55261;DHT22;41123;51.416;6.758;2022-07-05T00:07:24;21.60;99.90
55261;DHT22;41123;51.416;6.758;2022-07-05T00:09:53;19.50;99.90
55261;DHT22;41123;51.416;6.758;2022-07-05T00:12:21;19.40;99.90
55261;DHT22;41123;51.416;6.758;2022-07-05T00:14:49;19.40;99.90
55261;DHT22;41123;51.416;6.758;2022-07-05T00:17:15;19.40;99.90
55261;DHT22;41123;51.416;6.758;2022-07-05T00:19:41;19.30;99.90
55261;DHT22;41123;51.416;6.758;2022-07-05T00:22:06;19.30;99.90
55261;DHT22;41123;51.416;6.758;2022-07-05T00:24:32;19.20;99.90
55261;DHT22;41123;51.416;6.758;2022-07-05T00:26:58;19.30;99.90
55261;DHT22;41123;51.416;6.758;2022-07-05T00:29:24;19.20;99.90
55261;DHT22;41123;51.416;6.758;2022-07-05T00:31:49;21.30;99.90
55261;DHT22;41123;51.416;6.758;2022-07-05T00:34:15;19.10;99.90
55261;DHT22;41123;51.416;6.758;2022-07-05T00:36:41;19.10;99.90
55261;DHT22;41123;51.416;6.758;2022-07-05T00:39:07;19.20;99.90
55261;DHT22;41123;51.416;6.758;2022-07-05T00:41:33;19.20;99.90
55261;DHT22;41123;51.416;6.758;2022-07-05T00:44:02;19.30;99.90
55261;DHT22;41123;51.416;6.758;2022-07-05T00:46:29;19.40;99.90
55261;DHT22;41123;51.416;6.758;2022-07-05T00:48:55;19.50;99.90
55261;DHT22;41123;51.416;6.758;2022-07-05T00:51:22;19.50;99.80
55261;DHT22;41123;51.416;6.758;2022-07-05T00:53:48;19.60;99.80
55261;DHT22;41123;51.416;6.758;2022-07-05T00:56:15;19.60;99.80
55261;DHT22;41123;51.416;6.758;2022-07-05T00:58:41;19.60;99.90
55261;DHT22;41123;51.416;6.758;2022-07-05T01:01:08;19.60;99.90
55261;DHT22;41123;51.416;6.758;2022-07-05T01:03:34;19.50;99.80
55261;DHT22;41123;51.416;6.758;2022-07-05T01:06:01;19.70;99.90
55261;DHT22;41123;51.416;6.758;2022-07-05T01:08:28;21.70;99.90
55261;DHT22;41123;51.416;6.758;2022-07-05T01:10:57;19.40;99.90
55261;DHT22;41123;51.416;6.758;2022-07-05T01:13:23;19.30;99.90
55261;DHT22;41123;51.416;6.758;2022-07-05T01:15:49;19.40;99.90
55261;DHT22;41123;51.416;6.758;2022-07-05T01:18:15;19.40;99.90
55261;DHT22;41123;51.416;6.758;2022-07-05T01:20:42;19.40;99.90
55261;DHT22;41123;51.416;6.758;2022-07-05T01:23:08;19.40;99.90
55261;DHT22;41123;51.416;6.758;2022-07-05T01:25:34;19.40;99.90
55261;DHT22;41123;51.416;6.758;2022-07-05T01:28:00;19.30;99.90
55261;DHT22;41123;51.416;6.758;2022-07-05T01:30:26;19.30;99.90
55261;DHT22;41123;51.416;6.758;2022-07-05T01:32:52;20.80;99.90
55261;DHT22;41123;51.416;6.758;2022-07-05T01:35:19;19.20;99.90
55261;DHT22;41123;51.416;6.758;2022-07-05T01:37:49;19.20;99.90
55261;DHT22;41123;51.416;6.758;2022-07-05T01:40:16;19.20;99.90
55261;DHT22;41123;51.416;6.758;2022-07-05T01:42:42;19.10;99.90
55261;DHT22;41123;51.416;6.758;2022-07-05T01:45:09;19.10;99.90
55261;DHT22;41123;51.416;6.758;2022-07-05T01:47:44;19.10;99.90
55261;DHT22;41123;51.416;6.758;2022-07-05T01:50:12;19.20;99.90
55261;DHT22;41123;51.416;6.758;2022-07-05T01:52:42;19.30;99.90
55261;DHT22;41123;51.416;6.758;2022-07-05T01:55:09;19.30;99.90
55261;DHT22;41123;51.416;6.758;2022-07-05T01:57:35;19.30;99.90
55261;DHT22;41123;51.416;6.758;2022-07-05T02:00:01;19.30;99.90
55261;DHT22;41123;51.416;6.758;2022-07-05T02:02:27;19.30;99.90
55261;DHT22;41123;51.416;6.758;2022-07-05T02:04:52;21.20;99.90
55261;DHT22;41123;51.416;6.758;2022-07-05T02:07:18;19.20;99.90
55261;DHT22;41123;51.416;6.758;2022-07-05T02:09:43;19.10;99.90
55261;DHT22;41123;51.416;6.758;2022-07-05T02:12:09;19.00;99.90
55261;DHT22;41123;51.416;6.758;2022-07-05T02:14:35;19.00;99.90
55261;DHT22;41123;51.416;6.758;2022-07-05T02:17:01;19.10;99.90
55261;DHT22;41123;51.416;6.758;2022-07-05T02:19:27;19.10;99.90
55261;DHT22;41123;51.416;6.758;2022-07-05T02:21:53;19.10;99.90
55261;DHT22;41123;51.416;6.758;2022-07-05T02:24:20;19.00;99.90
55261;DHT22;41123;51.416;6.758;2022-07-05T02:26:46;19.00;99.90
55261;DHT22;41123;51.416;6.758;2022-07-05T02:29:12;19.00;99.90
55261;DHT22;41123;51.416;6.758;2022-07-05T02:31:38;19.00;99.90
55261;DHT22;41123;51.416;6.758;2022-07-05T02:34:03;18.90;99.90
55261;DHT22;41123;51.416;6.758;2022-07-05T02:36:29;18.90;99.90
55261;DHT22;41123;51.416;6.758;2022-07-05T02:38:54;19.10;99.90
55261;DHT22;41123;51.416;6.758;2022-07-05T02:41:20;19.10;99.90
55261;DHT22;41123;51.416;6.758;2022-07-05T02:43:46;19.10;99.90
55261;DHT22;41123;51.416;6.758;2022-07-05T02:46:11;19.10;99.90
55261;DHT22;41123;51.416;6.758;2022-07-05T02:48:37;19.10;99.90
55261;DHT22;41123;51.416;6.758;2022-07-05T02:51:03;19.00;99.90
55261;DHT22;41123;51.416;6.758;2022-07-05T02:53:29;18.90;99.90
55261;DHT22;41123;51.416;6.758;2022-07-05T02:55:55;18.80;99.90
55261;DHT22;41123;51.416;6.758;2022-07-05T02:58:21;18.70;99.90
55261;DHT22;41123;51.416;6.758;2022-07-05T03:00:47;18.60;99.90
55261;DHT22;41123;51.416;6.758;2022-07-05T03:03:14;18.50;99.90
55261;DHT22;41123;51.416;6.758;2022-07-05T03:05:40;18.40;99.90
55261;DHT22;41123;51.416;6.758;2022-07-05T03:08:06;18.30;99.90
55261;DHT22;41123;51.416;6.758;2022-07-05T03:10:32;18.20;99.90
55261;DHT22;41123;51.416;6.758;2022-07-05T03:12:58;18.20;99.90
55261;DHT22;41123;51.416;6.758;2022-07-05T03:15:24;18.10;99.90
55261;DHT22;41123;51.416;6.758;2022-07-05T03:17:49;18.10;99.90
55261;DHT22;41123;51.416;6.758;2022-07-05T03:20:15;18.10;99.90
55261;DHT22;41123;51.416;6.758;2022-07-05T03:22:41;19.30;99.90
55261;DHT22;41123;51.416;6.758;2022-07-05T03:25:07;18.10;99.90
55261;DHT22;41123;51.416;6.758;2022-07-05T03:27:33;18.10;99.90
55261;DHT22;41123;51.416;6.758;2022-07-05T03:29:58;18.10;99.90
55261;DHT22;41123;51.416;6.758;2022-07-05T03:32:24;20.40;99.90
55261;DHT22;41123;51.416;6.758;2022-07-05T03:34:50;18.00;99.90
55261;DHT22;41123;51.416;6.758;2022-07-05T03:37:15;18.20;99.90
55261;DHT22;41123;51.416;6.758;2022-07-05T03:39:41;17.90;99.90
55261;DHT22;41123;51.416;6.758;2022-07-05T03:42:07;18.00;99.90
55261;DHT22;41123;51.416;6.758;2022-07-05T03:44:33;18.00;99.90
55261;DHT22;41123;51.416;6.758;2022-07-05T03:47:01;18.10;99.90
55261;DHT22;41123;51.416;6.758;2022-07-05T03:49:27;18.10;99.90
55261;DHT22;41123;51.416;6.758;2022-07-05T03:51:53;18.70;99.90
55261;DHT22;41123;51.416;6.758;2022-07-05T03:54:19;18.10;99.90
55261;DHT22;41123;51.416;6.758;2022-07-05T03:56:44;18.10;99.90
55261;DHT22;41123;51.416;6.758;2022-07-05T03:59:10;18.20;99.90
55261;DHT22;41123;51.416;6.758;2022-07-05T04:01:36;18.10;99.90
55261;DHT22;41123;51.416;6.758;2022-07-05T04:04:02;18.00;99.90
55261;DHT22;41123;51.416;6.758;2022-07-05T04:06:28;18.00;99.90
55261;DHT22;41123;51.416;6.758;2022-07-05T04:08:54;18.00;99.90
55261;DHT22;41123;51.416;6.758;2022-07-05T04:11:20;18.00;99.90
55261;DHT22;41123;51.416;6.758;2022-07-05T04:13:45;18.00;99.90
55261;DHT22;41123;51.416;6.758;2022-07-05T04:16:11;18.00;99.90
55261;DHT22;41123;51.416;6.758;2022-07-05T04:18:38;20.40;99.90
55261;DHT22;41123;51.416;6.758;2022-07-05T04:21:04;18.10;99.90
55261;DHT22;41123;51.416;6.758;2022-07-05T04:23:30;18.10;99.90
55261;DHT22;41123;51.416;6.758;2022-07-05T04:25:56;18.10;99.90
55261;DHT22;41123;51.416;6.758;2022-07-05T04:28:22;18.20;99.90
55261;DHT22;41123;51.416;6.758;2022-07-05T04:30:48;18.30;99.90
55261;DHT22;41123;51.416;6.758;2022-07-05T04:33:13;18.20;99.90
55261;DHT22;41123;51.416;6.758;2022-07-05T04:35:39;19.70;99.90
55261;DHT22;41123;51.416;6.758;2022-07-05T04:38:05;18.30;99.90
55261;DHT22;41123;51.416;6.758;2022-07-05T04:40:30;18.20;99.90
55261;DHT22;41123;51.416;6.758;2022-07-05T04:42:56;18.40;99.90
55261;DHT22;41123;51.416;6.758;2022-07-05T04:45:22;18.30;99.90
55261;DHT22;41123;51.416;6.758;2022-07-05T04:47:47;18.40;99.90
55261;DHT22;41123;51.416;6.758;2022-07-05T04:50:13;18.50;99.90
55261;DHT22;41123;51.416;6.758;2022-07-05T04:52:39;18.40;99.90
55261;DHT22;41123;51.416;6.758;2022-07-05T04:55:05;18.50;99.90
55261;DHT22;41123;51.416;6.758;2022-07-05T04:57:40;18.50;99.90
55261;DHT22;41123;51.416;6.758;2022-07-05T05:00:11;18.60;99.90
55261;DHT22;41123;51.416;6.758;2022-07-05T05:02:37;18.60;99.90
55261;DHT22;41123;51.416;6.758;2022-07-05T05:05:03;18.70;99.90
55261;DHT22;41123;51.416;6.758;2022-07-05T05:07:28;18.70;99.90
55261;DHT22;41123;51.416;6.758;2022-07-05T05:09:55;18.80;99.90
55261;DHT22;41123;51.416;6.758;2022-07-05T05:12:21;18.80;99.90
55261;DHT22;41123;51.416;6.758;2022-07-05T05:14:46;18.90;99.90
55261;DHT22;41123;51.416;6.758;2022-07-05T05:17:12;19.00;99.90
55261;DHT22;41123;51.416;6.758;2022-07-05T05:19:38;19.30;99.90
55261;DHT22;41123;51.416;6.758;2022-07-05T05:22:03;19.30;99.90
55261;DHT22;41123;51.416;6.758;2022-07-05T05:24:29;19.50;99.90
55261;DHT22;41123;51.416;6.758;2022-07-05T05:26:55;19.60;99.90
55261;DHT22;41123;51.416;6.758;2022-07-05T05:29:20;19.80;99.90
55261;DHT22;41123;51.416;6.758;2022-07-05T05:31:47;19.80;99.90
55261;DHT22;41123;51.416;6.758;2022-07-05T05:34:12;19.90;99.90
55261;DHT22;41123;51.416;6.758;2022-07-05T05:36:38;20.60;99.90
55261;DHT22;41123;51.416;6.758;2022-07-05T05:39:04;19.90;99.90
55261;DHT22;41123;51.416;6.758;2022-07-05T05:41:29;19.90;99.90
55261;DHT22;41123;51.416;6.758;2022-07-05T05:43:55;19.90;99.90
55261;DHT22;41123;51.416;6.758;2022-07-05T05:46:21;19.90;99.90
55261;DHT22;41123;51.416;6.758;2022-07-05T05:48:46;19.90;99.90
55261;DHT22;41123;51.416;6.758;2022-07-05T05:51:12;20.00;99.90
55261;DHT22;41123;51.416;6.758;2022-07-05T05:53:37;20.10;99.90
55261;DHT22;41123;51.416;6.758;2022-07-05T05:56:03;20.10;99.90
55261;DHT22;41123;51.416;6.758;2022-07-05T05:58:29;20.20;99.90
55261;DHT22;41123;51.416;6.758;2022-07-05T06:00:54;20.30;99.90
55261;DHT22;41123;51.416;6.758;2022-07-05T06:03:25;20.40;99.70
55261;DHT22;41123;51.416;6.758;2022-07-05T06:05:50;20.40;99.90
55261;DHT22;41123;51.416;6.758;2022-07-05T06:08:17;20.30;99.90
55261;DHT22;41123;51.416;6.758;2022-07-05T06:10:44;20.20;99.90
55261;DHT22;41123;51.416;6.758;2022-07-05T06:13:11;20.10;99.90
55261;DHT22;41123;51.416;6.758;2022-07-05T06:15:38;20.10;99.90
55261;DHT22;41123;51.416;6.758;2022-07-05T06:18:04;20.20;99.90
55261;DHT22;41123;51.416;6.758;2022-07-05T06:20:32;20.10;99.90
55261;DHT22;41123;51.416;6.758;2022-07-05T06:22:59;20.70;99.90
55261;DHT22;41123;51.416;6.758;2022-07-05T06:25:26;20.10;99.90
55261;DHT22;41123;51.416;6.758;2022-07-05T06:28:00;20.00;99.90
55261;DHT22;41123;51.416;6.758;2022-07-05T06:30:27;20.20;99.90
55261;DHT22;41123;51.416;6.758;2022-07-05T06:32:54;20.30;99.90
55261;DHT22;41123;51.416;6.758;2022-07-05T06:35:20;20.30;99.90
55261;DHT22;41123;51.416;6.758;2022-07-05T06:38:04;21.70;99.90
55261;DHT22;41123;51.416;6.758;2022-07-05T06:40:32;20.30;99.80
55261;DHT22;41123;51.416;6.758;2022-07-05T06:43:00;20.20;99.60
55261;DHT22;41123;51.416;6.758;2022-07-05T06:45:26;20.10;99.30
55261;DHT22;41123;51.416;6.758;2022-07-05T06:47:59;20.20;99.40
55261;DHT22;41123;51.416;6.758;2022-07-05T06:50:26;20.80;99.30
55261;DHT22;41123;51.416;6.758;2022-07-05T06:52:52;20.30;98.40
55261;DHT22;41123;51.416;6.758;2022-07-05T06:55:18;20.30;99.10
55261;DHT22;41123;51.416;6.758;2022-07-05T06:57:44;20.30;99.70
55261;DHT22;41123;51.416;6.758;2022-07-05T07:00:11;20.30;98.30
55261;DHT22;41123;51.416;6.758;2022-07-05T07:02:37;20.40;98.00
55261;DHT22;41123;51.416;6.758;2022-07-05T07:05:03;20.50;98.00
55261;DHT22;41123;51.416;6.758;2022-07-05T07:07:31;20.50;97.60
55261;DHT22;41123;51.416;6.758;2022-07-05T07:10:16;20.70;97.60
55261;DHT22;41123;51.416;6.758;2022-07-05T07:12:41;20.60;97.60
55261;DHT22;41123;51.416;6.758;2022-07-05T07:15:07;20.50;98.10
55261;DHT22;41123;51.416;6.758;2022-07-05T07:17:33;20.60;98.00
55261;DHT22;41123;51.416;6.758;2022-07-05T07:19:59;20.70;98.20
55261;DHT22;41123;51.416;6.758;2022-07-05T07:22:24;21.00;97.90
55261;DHT22;41123;51.416;6.758;2022-07-05T07:24:50;21.10;96.10
55261;DHT22;41123;51.416;6.758;2022-07-05T07:27:15;21.50;95.90
55261;DHT22;41123;51.416;6.758;2022-07-05T07:29:41;21.70;96.00
55261;DHT22;41123;51.416;6.758;2022-07-05T07:32:08;21.80;95.90
55261;DHT22;41123;51.416;6.758;2022-07-05T07:34:35;21.80;95.70
55261;DHT22;41123;51.416;6.758;2022-07-05T07:37:02;22.00;95.30
55261;DHT22;41123;51.416;6.758;2022-07-05T07:39:28;22.30;95.00
55261;DHT22;41123;51.416;6.758;2022-07-05T07:41:55;22.40;95.20
55261;DHT22;41123;51.416;6.758;2022-07-05T07:44:20;24.20;95.30
55261;DHT22;41123;51.416;6.758;2022-07-05T07:46:46;22.90;94.60
55261;DHT22;41123;51.416;6.758;2022-07-05T07:49:12;22.90;94.40
55261;DHT22;41123;51.416;6.758;2022-07-05T07:51:38;22.80;94.60
55261;DHT22;41123;51.416;6.758;2022-07-05T07:54:04;22.60;94.80
55261;DHT22;41123;51.416;6.758;2022-07-05T07:56:30;22.70;94.90
55261;DHT22;41123;51.416;6.758;2022-07-05T07:58:56;22.50;94.80
55261;DHT22;41123;51.416;6.758;2022-07-05T08:01:22;22.20;94.80
55261;DHT22;41123;51.416;6.758;2022-07-05T08:03:48;22.20;95.00
55261;DHT22;41123;51.416;6.758;2022-07-05T08:06:14;22.30;95.00
55261;DHT22;41123;51.416;6.758;2022-07-05T08:08:41;22.20;95.20
55261;DHT22;41123;51.416;6.758;2022-07-05T08:11:09;22.40;95.20
55261;DHT22;41123;51.416;6.758;2022-07-05T08:13:36;22.40;94.90
55261;DHT22;41123;51.416;6.758;2022-07-05T08:16:03;22.70;94.70
55261;DHT22;41123;51.416;6.758;2022-07-05T08:18:28;22.90;94.30
55261;DHT22;41123;51.416;6.758;2022-07-05T08:21:13;23.20;94.20
55261;DHT22;41123;51.416;6.758;2022-07-05T08:24:03;23.60;93.90
55261;DHT22;41123;51.416;6.758;2022-07-05T08:26:29;23.70;94.00
55261;DHT22;41123;51.416;6.758;2022-07-05T08:28:59;23.30;94.20
55261;DHT22;41123;51.416;6.758;2022-07-05T08:31:26;23.20;94.20
55261;DHT22;41123;51.416;6.758;2022-07-05T08:33:52;23.30;94.20
55261;DHT22;41123;51.416;6.758;2022-07-05T08:36:17;23.10;94.20
55261;DHT22;41123;51.416;6.758;2022-07-05T08:38:43;22.90;94.10
55261;DHT22;41123;51.416;6.758;2022-07-05T08:41:10;22.90;93.90
55261;DHT22;41123;51.416;6.758;2022-07-05T08:43:40;22.60;94.00
55261;DHT22;41123;51.416;6.758;2022-07-05T08:46:07;22.50;94.50
55261;DHT22;41123;51.416;6.758;2022-07-05T08:48:37;22.30;94.60
55261;DHT22;41123;51.416;6.758;2022-07-05T08:51:13;22.40;95.20
55261;DHT22;41123;51.416;6.758;2022-07-05T08:53:42;22.30;94.60
55261;DHT22;41123;51.416;6.758;2022-07-05T08:56:10;22.10;94.60
55261;DHT22;41123;51.416;6.758;2022-07-05T08:58:36;22.00;94.90
55261;DHT22;41123;51.416;6.758;2022-07-05T09:01:02;22.00;95.00
55261;DHT22;41123;51.416;6.758;2022-07-05T09:03:33;21.90;95.00
55261;DHT22;41123;51.416;6.758;2022-07-05T09:06:01;21.90;94.80
55261;DHT22;41123;51.416;6.758;2022-07-05T09:08:30;22.80;95.30
55261;DHT22;41123;51.416;6.758;2022-07-05T09:11:01;21.90;95.20
55261;DHT22;41123;51.416;6.758;2022-07-05T09:13:27;21.80;95.30
55261;DHT22;41123;51.416;6.758;2022-07-05T09:15:53;21.70;95.40
55261;DHT22;41123;51.416;6.758;2022-07-05T09:18:50;21.70;95.40
55261;DHT22;41123;51.416;6.758;2022-07-05T09:21:17;21.70;95.30
55261;DHT22;41123;51.416;6.758;2022-07-05T09:23:44;21.70;95.50
55261;DHT22;41123;51.416;6.758;2022-07-05T09:26:10;21.90;95.70
55261;DHT22;41123;51.416;6.758;2022-07-05T09:28:36;21.70;95.70
55261;DHT22;41123;51.416;6.758;2022-07-05T09:31:02;21.60;95.20
55261;DHT22;41123;51.416;6.758;2022-07-05T09:33:28;21.70;94.60
55261;DHT22;41123;51.416;6.758;2022-07-05T09:35:55;21.80;94.60
55261;DHT22;41123;51.416;6.758;2022-07-05T09:38:25;21.90;94.20
55261;DHT22;41123;51.416;6.758;2022-07-05T09:40:53;21.80;94.40
55261;DHT22;41123;51.416;6.758;2022-07-05T09:43:24;21.90;94.30
55261;DHT22;41123;51.416;6.758;2022-07-05T09:48:22;22.10;93.60
55261;DHT22;41123;51.416;6.758;2022-07-05T09:50:49;22.20;92.80
55261;DHT22;41123;51.416;6.758;2022-07-05T09:53:19;22.40;93.30
55261;DHT22;41123;51.416;6.758;2022-07-05T09:56:01;22.60;92.40
55261;DHT22;41123;51.416;6.758;2022-07-05T09:58:28;22.90;91.80
55261;DHT22;41123;51.416;6.758;2022-07-05T10:00:54;23.20;91.80
55261;DHT22;41123;51.416;6.758;2022-07-05T10:03:20;23.10;92.40
55261;DHT22;41123;51.416;6.758;2022-07-05T10:05:45;23.10;92.20
55261;DHT22;41123;51.416;6.758;2022-07-05T10:08:12;23.20;92.70
55261;DHT22;41123;51.416;6.758;2022-07-05T10:10:38;23.30;92.30
55261;DHT22;41123;51.416;6.758;2022-07-05T10:13:04;23.40;92.20
55261;DHT22;41123;51.416;6.758;2022-07-05T10:15:34;23.40;91.90
55261;DHT22;41123;51.416;6.758;2022-07-05T10:18:08;23.60;91.80
55261;DHT22;41123;51.416;6.758;2022-07-05T10:23:04;23.70;91.70
55261;DHT22;41123;51.416;6.758;2022-07-05T10:25:31;23.60;91.30
55261;DHT22;41123;51.416;6.758;2022-07-05T10:27:57;23.60;90.80
55261;DHT22;41123;51.416;6.758;2022-07-05T10:30:24;23.50;89.60
55261;DHT22;41123;51.416;6.758;2022-07-05T10:32:49;23.50;90.40
55261;DHT22;41123;51.416;6.758;2022-07-05T10:35:19;23.30;89.90
55261;DHT22;41123;51.416;6.758;2022-07-05T10:37:47;24.50;90.20
55261;DHT22;41123;51.416;6.758;2022-07-05T10:40:13;24.20;90.40
55261;DHT22;41123;51.416;6.758;2022-07-05T10:42:48;24.40;91.00
55261;DHT22;41123;51.416;6.758;2022-07-05T10:45:32;24.00;91.30
55261;DHT22;41123;51.416;6.758;2022-07-05T11:03:53;23.70;91.20
55261;DHT22;41123;51.416;6.758;2022-07-05T11:06:28;23.40;91.50
55261;DHT22;41123;51.416;6.758;2022-07-05T11:13:50;23.40;91.80
55261;DHT22;41123;51.416;6.758;2022-07-05T11:16:28;23.60;91.80
55261;DHT22;41123;51.416;6.758;2022-07-05T11:19:13;23.80;91.80
55261;DHT22;41123;51.416;6.758;2022-07-05T11:22:00;23.60;91.50
55261;DHT22;41123;51.416;6.758;2022-07-05T11:24:27;23.50;91.60
55261;DHT22;41123;51.416;6.758;2022-07-05T11:26:58;23.40;91.30
55261;DHT22;41123;51.416;6.758;2022-07-05T11:29:49;23.50;90.70
55261;DHT22;41123;51.416;6.758;2022-07-05T11:34:56;23.50;90.60
55261;DHT22;41123;51.416;6.758;2022-07-05T11:37:56;23.60;90.60
55261;DHT22;41123;51.416;6.758;2022-07-05T11:42:49;24.10;90.70
55261;DHT22;41123;51.416;6.758;2022-07-05T11:45:15;24.30;90.40
55261;DHT22;41123;51.416;6.758;2022-07-05T11:47:42;24.30;90.40
55261;DHT22;41123;51.416;6.758;2022-07-05T11:50:08;24.10;89.30
55261;DHT22;41123;51.416;6.758;2022-07-05T11:52:36;24.20;89.00
55261;DHT22;41123;51.416;6.758;2022-07-05T11:55:04;24.20;89.30
55261;DHT22;41123;51.416;6.758;2022-07-05T11:57:30;23.40;88.90
55261;DHT22;41123;51.416;6.758;2022-07-05T11:59:55;24.20;89.70
55261;DHT22;41123;51.416;6.758;2022-07-05T12:02:21;24.00;88.90
55261;DHT22;41123;51.416;6.758;2022-07-05T12:04:52;24.20;89.30
55261;DHT22;41123;51.416;6.758;2022-07-05T12:07:34;24.30;89.90
55261;DHT22;41123;51.416;6.758;2022-07-05T12:10:01;24.20;89.50
55261;DHT22;41123;51.416;6.758;2022-07-05T12:12:46;24.20;90.00
55261;DHT22;41123;51.416;6.758;2022-07-05T12:15:19;24.10;88.90
55261;DHT22;41123;51.416;6.758;2022-07-05T12:17:47;24.20;89.80
55261;DHT22;41123;51.416;6.758;2022-07-05T12:20:20;24.10;89.00
55261;DHT22;41123;51.416;6.758;2022-07-05T12:22:46;23.80;90.30
55261;DHT22;41123;51.416;6.758;2022-07-05T12:25:18;23.90;90.10
55261;DHT22;41123;51.416;6.758;2022-07-05T12:27:44;23.90;90.40
55261;DHT22;41123;51.416;6.758;2022-07-05T12:30:11;24.20;90.40
55261;DHT22;41123;51.416;6.758;2022-07-05T12:32:53;24.10;90.20
55261;DHT22;41123;51.416;6.758;2022-07-05T12:35:29;24.30;90.40
55261;DHT22;41123;51.416;6.758;2022-07-05T12:37:55;24.30;90.00
55261;DHT22;41123;51.416;6.758;2022-07-05T12:40:22;24.50;90.00
55261;DHT22;41123;51.416;6.758;2022-07-05T12:43:03;24.40;89.50
55261;DHT22;41123;51.416;6.758;2022-07-05T12:45:29;24.50;90.10
55261;DHT22;41123;51.416;6.758;2022-07-05T12:47:56;24.30;89.70
55261;DHT22;41123;51.416;6.758;2022-07-05T12:50:25;24.50;89.50
55261;DHT22;41123;51.416;6.758;2022-07-05T12:55:34;24.50;88.80
55261;DHT22;41123;51.416;6.758;2022-07-05T12:58:26;24.70;89.40
55261;DHT22;41123;51.416;6.758;2022-07-05T13:00:52;25.20;88.50
55261;DHT22;41123;51.416;6.758;2022-07-05T13:03:17;25.50;88.30
55261;DHT22;41123;51.416;6.758;2022-07-05T13:05:43;25.50;88.90
55261;DHT22;41123;51.416;6.758;2022-07-05T13:08:08;25.40;88.40
55261;DHT22;41123;51.416;6.758;2022-07-05T13:10:34;25.50;88.80
55261;DHT22;41123;51.416;6.758;2022-07-05T13:13:00;25.30;88.90
55261;DHT22;41123;51.416;6.758;2022-07-05T13:15:27;27.20;90.20
55261;DHT22;41123;51.416;6.758;2022-07-05T13:17:53;25.30;89.10
55261;DHT22;41123;51.416;6.758;2022-07-05T13:20:19;25.40;88.30
55261;DHT22;41123;51.416;6.758;2022-07-05T13:22:46;25.60;88.70
55261;DHT22;41123;51.416;6.758;2022-07-05T13:25:12;25.80;89.00
55261;DHT22;41123;51.416;6.758;2022-07-05T13:27:41;25.90;88.70
55261;DHT22;41123;51.416;6.758;2022-07-05T13:30:07;25.70;88.70
55261;DHT22;41123;51.416;6.758;2022-07-05T13:32:33;25.40;88.80
55261;DHT22;41123;51.416;6.758;2022-07-05T13:34:59;25.50;89.10
55261;DHT22;41123;51.416;6.758;2022-07-05T13:37:25;25.70;88.90
55261;DHT22;41123;51.416;6.758;2022-07-05T13:39:50;25.60;90.00
55261;DHT22;41123;51.416;6.758;2022-07-05T13:42:16;25.60;90.20
55261;DHT22;41123;51.416;6.758;2022-07-05T13:44:42;25.50;90.40
55261;DHT22;41123;51.416;6.758;2022-07-05T13:47:07;26.70;90.50
55261;DHT22;41123;51.416;6.758;2022-07-05T13:49:33;26.10;90.00
55261;DHT22;41123;51.416;6.758;2022-07-05T13:52:03;24.20;89.60
55261;DHT22;41123;51.416;6.758;2022-07-05T13:54:31;25.20;90.40
55261;DHT22;41123;51.416;6.758;2022-07-05T13:56:56;25.30;90.40
55261;DHT22;41123;51.416;6.758;2022-07-05T13:59:22;25.10;90.30
55261;DHT22;41123;51.416;6.758;2022-07-05T14:01:48;24.50;90.70
55261;DHT22;41123;51.416;6.758;2022-07-05T14:04:13;24.50;90.90
55261;DHT22;41123;51.416;6.758;2022-07-05T14:06:39;24.50;90.70
55261;DHT22;41123;51.416;6.758;2022-07-05T14:09:04;24.60;90.80
55261;DHT22;41123;51.416;6.758;2022-07-05T14:11:30;24.30;91.20
55261;DHT22;41123;51.416;6.758;2022-07-05T14:13:56;24.20;91.50
55261;DHT22;41123;51.416;6.758;2022-07-05T14:16:22;24.40;91.60
55261;DHT22;41123;51.416;6.758;2022-07-05T14:18:48;24.30;91.90
55261;DHT22;41123;51.416;6.758;2022-07-05T14:21:15;24.50;91.80
55261;DHT22;41123;51.416;6.758;2022-07-05T14:23:42;24.50;91.90
55261;DHT22;41123;51.416;6.758;2022-07-05T14:26:07;24.70;91.90
55261;DHT22;41123;51.416;6.758;2022-07-05T14:28:34;25.10;91.60
55261;DHT22;41123;51.416;6.758;2022-07-05T14:31:00;25.50;91.60
55261;DHT22;41123;51.416;6.758;2022-07-05T14:33:25;25.90;91.30
55261;DHT22;41123;51.416;6.758;2022-07-05T14:35:51;25.60;91.10
55261;DHT22;41123;51.416;6.758;2022-07-05T14:38:17;25.60;91.20
55261;DHT22;41123;51.416;6.758;2022-07-05T14:40:42;25.70;91.10
55261;DHT22;41123;51.416;6.758;2022-07-05T14:43:08;26.00;91.20
55261;DHT22;41123;51.416;6.758;2022-07-05T14:45:33;26.10;90.80
55261;DHT22;41123;51.416;6.758;2022-07-05T14:47:59;26.30;90.70
55261;DHT22;41123;51.416;6.758;2022-07-05T14:50:25;26.20;90.30
55261;DHT22;41123;51.416;6.758;2022-07-05T14:52:51;26.10;90.80
55261;DHT22;41123;51.416;6.758;2022-07-05T14:55:17;26.10;90.60
55261;DHT22;41123;51.416;6.758;2022-07-05T14:57:43;26.50;91.00
55261;DHT22;41123;51.416;6.758;2022-07-05T15:00:11;26.70;90.10
55261;DHT22;41123;51.416;6.758;2022-07-05T15:02:37;26.60;90.30
55261;DHT22;41123;51.416;6.758;2022-07-05T15:05:04;26.50;90.40
55261;DHT22;41123;51.416;6.758;2022-07-05T15:07:30;26.40;90.30
55261;DHT22;41123;51.416;6.758;2022-07-05T15:09:56;26.10;90.70
55261;DHT22;41123;51.416;6.758;2022-07-05T15:12:22;25.80;91.00
55261;DHT22;41123;51.416;6.758;2022-07-05T15:14:48;25.50;90.90
55261;DHT22;41123;51.416;6.758;2022-07-05T15:17:13;25.30;90.80
55261;DHT22;41123;51.416;6.758;2022-07-05T15:19:39;25.30;90.80
55261;DHT22;41123;51.416;6.758;2022-07-05T15:22:10;25.00;90.70
55261;DHT22;41123;51.416;6.758;2022-07-05T15:24:36;24.90;91.20
55261;DHT22;41123;51.416;6.758;2022-07-05T15:27:02;24.80;91.30
55261;DHT22;41123;51.416;6.758;2022-07-05T15:29:28;24.80;91.50
55261;DHT22;41123;51.416;6.758;2022-07-05T15:31:57;24.60;91.30
55261;DHT22;41123;51.416;6.758;2022-07-05T15:34:23;24.50;91.50
55261;DHT22;41123;51.416;6.758;2022-07-05T15:36:51;24.20;91.70
55261;DHT22;41123;51.416;6.758;2022-07-05T15:39:16;24.10;91.90
55261;DHT22;41123;51.416;6.758;2022-07-05T15:41:42;24.00;92.00
55261;DHT22;41123;51.416;6.758;2022-07-05T15:44:07;23.90;92.10
55261;DHT22;41123;51.416;6.758;2022-07-05T15:46:33;23.90;92.20
55261;DHT22;41123;51.416;6.758;2022-07-05T15:49:18;23.80;92.50
55261;DHT22;41123;51.416;6.758;2022-07-05T15:51:43;23.80;92.40
55261;DHT22;41123;51.416;6.758;2022-07-05T15:54:09;23.80;92.30
55261;DHT22;41123;51.416;6.758;2022-07-05T15:56:35;23.70;92.50
55261;DHT22;41123;51.416;6.758;2022-07-05T15:59:01;23.90;92.30
55261;DHT22;41123;51.416;6.758;2022-07-05T16:01:27;24.30;92.30
55261;DHT22;41123;51.416;6.758;2022-07-05T16:03:52;24.40;91.70